Kezdőlap
METAR-TAF:

METAR-TAF

Repülőterek :

Budapest, Magyarország

Budapest Liszt Ferenc nemzetközi repülőtér

földrajzi szélesség: 47-26N, földrajzi hosszúság: 019-16E, magasság: 151 m

Jelenlegi meteorológiai megfigyelések

A jelentés 25 perccel ezelõtt készült, 14:30 UTC
Északi szél 9 kt
Hőmérséklet 1°C
Páratartalom 59%
Légköri nyomás 1026 hPa
Látótávolság 10 km, vagy több
felhőtlen 1500 m magasságban, és nincs gomolyfelhõ

METAR: LHBP 171430Z 36009KT CAVOK 01/M06 Q1026 NOSIG

Idő: 15:55 (14:55 UTC)

Előrejelzés

A jelentés 3 órával és 55 perccel ezelõtt készült, 11:00 UTC
Az előrejelzés 17-én 12 óra UTC és 18-én 12 óra UTC között érvényes
Északi szél 9 kt
Látótávolság 10 km, vagy több
felhőtlen 1500 m magasságban, és nincs gomolyfelhõ
18-én 09 óra UTC és 18-én 11 óra UTC között fokozatosan kialakuló
Északkeleti szél 8 kt

TAF: LHBP 171100Z 1712/1812 01009KT CAVOK BECMG 1809/1811 05008KT

Meteorológiai megfigyelések és előrejelzések több, mint 4000 repülőtéren (METAR és TAF jelentéseket).

A térképen piros és sárga pontok jelzik az elérhető meteorológiai állomásokat.

Mozgassa az egeret a pont fölött, hogy megjelenjen az állomás neve.

Azután kattintson az időjárási megfigyelések és előrejelzések megtekintéséhez.

A térkép megváltoztatása: kattintson a fekete keresztel jelölt zöld gombra ráközelítéshez, a vonallal jelölt zöld gombra távolításhoz, vagy a zöld nyilakra a szomszédos térképek eléréséhez.


METAR-TAF: